Thunder Ridge (Littleton), Colorado
Current Conditions -  °F | °C
As of 5:53 AM on Saturday 20 Dec 2014 (Local Time) from KAPA Reporting Station
Broken Clouds Broken Clouds  
Wind Chill: 28°   Ceiling: 22000
Heat Index: 28°   Visibility: 10mi
Dew Point: 18°   Wind: 0mph
Humidity: 66%   Direction: NA
Pressure: 29.99"   Gusts: NA
Location:  39.53461°N, 105.0094°W
Report Text: KAPA 201253Z 00000KT 10SM FEW120 SCT150 BKN220 M02/M08 A2999 RMK AO2 SLP181 T10221078
Loading
Personal Weather Stations






























Interactive Weather Map New forecast layout! Learn more

10-Day Weather Forecast

Advertisements
Track Severe Weather on mobile